ZBAA/PEK METAR and TAF weather

Enter ICAO airport designator
Station Type Date Time Source
ZBAA METAR 2021/09/24 05:30 UTC NOAA

ZBAA 240530Z VRB01MPS 4500 -RA BR BKN006 OVC033 19/18 Q1020 NOSIG


Station Type Date Time Source
ZBAA Decoded METAR 2021/09/24 05:30 UTC NOAA

Beijing, China (ZBAA) 39-56N 116-17E 55M
Sep 24, 2021 - 01:30 AM EDT / 2021.09.24 0530 UTC
Wind: Variable at 2 MPH (2 KT):0
Visibility: 2 mile(s):0
Sky conditions: overcast
Weather: light rain; mist
Temperature: 66 F (19 C)
Dew Point: 64 F (18 C)
Relative Humidity: 93%
Pressure (altimeter): 30.12 in. Hg (1020 hPa)
ob: ZBAA 240530Z VRB01MPS 4500 -RA BR BKN006 OVC033 19/18 Q1020 NOSIG
cycle: 5

Station Type Date Time Source
ZBAA TAF 2021/09/24 06:03 UTC NOAA

TAF TAF ZBAA 240303Z 2406/2506 09004MPS 3000 -SHRA BR OVC040 TX20/2407Z TN17/2421Z
TEMPO 2406/2412 BKN009 OVC033

Example: see airport list